Time;durP1;ratioP1;P1;durP2;ratioP2;P2;SDS_P1;SDS_P2;PMS_P1;PMS_P2;Temp;Humidity;BMP_temperature;BMP_pressure;BME280_temperature;BME280_humidity;BME280_pressure;Samples;Min_cycle;Max_cycle;Signal;HPM_P1;HPM_P2
2023/07/14 00:00:20;;;;;;;15.45;13.95;;;14.90;99.90;;;;;;5135733;27;20118;-39
2023/07/14 00:02:47;;;;;;;15.27;13.10;;;14.90;99.90;;;;;;5136644;27;20131;-40
2023/07/14 00:05:22;;;;;;;17.73;13.95;;;14.90;99.90;;;;;;5135246;27;20047;-39
2023/07/14 00:07:49;;;;;;;16.35;14.52;;;14.90;99.90;;;;;;5135912;27;20813;-40
2023/07/14 00:10:20;;;;;;;14.77;13.25;;;14.90;99.90;;;;;;5117018;27;20536;-39
2023/07/14 00:12:48;;;;;;;15.63;13.93;;;14.90;99.90;;;;;;5136386;27;20057;-39
2023/07/14 00:15:15;;;;;;;15.45;13.90;;;14.90;99.90;;;;;;5135052;27;20266;-41
2023/07/14 00:17:41;;;;;;;14.98;13.32;;;14.90;99.90;;;;;;5136467;27;20054;-39
2023/07/14 00:20:18;;;;;;;14.68;13.27;;;14.80;99.90;;;;;;5121509;27;20054;-39
2023/07/14 00:22:43;;;;;;;15.40;14.00;;;14.80;99.90;;;;;;5135564;27;20038;-39
2023/07/14 00:25:13;;;;;;;15.63;14.02;;;14.80;99.90;;;;;;5134971;27;20361;-40
2023/07/14 00:27:39;;;;;;;16.02;14.30;;;14.80;99.90;;;;;;5126450;27;20480;-39
2023/07/14 00:30:31;;;;;;;17.02;14.88;;;14.80;99.90;;;;;;5135243;27;20039;-40
2023/07/14 00:32:57;;;;;;;15.55;13.90;;;14.80;99.90;;;;;;5130858;27;20480;-40
2023/07/14 00:35:28;;;;;;;17.10;15.20;;;14.80;99.90;;;;;;5114016;27;20128;-39
2023/07/14 00:37:56;;;;;;;16.77;14.98;;;14.80;99.90;;;;;;5093604;27;20104;-40
2023/07/14 00:40:39;;;;;;;17.60;15.80;;;14.80;99.90;;;;;;5114971;27;20899;-39
2023/07/14 00:43:11;;;;;;;17.33;15.35;;;14.80;99.90;;;;;;5110676;27;20039;-39
2023/07/14 00:45:38;;;;;;;20.10;15.70;;;14.70;99.90;;;;;;5106970;27;20043;-40
2023/07/14 00:48:04;;;;;;;18.05;16.10;;;14.80;99.90;;;;;;5114499;27;20043;-40
2023/07/14 00:50:42;;;;;;;18.08;15.90;;;14.80;99.90;;;;;;5113448;27;20042;-39
2023/07/14 00:53:27;;;;;;;17.80;15.95;;;14.80;99.90;;;;;;5096563;28;20046;-39
2023/07/14 00:56:12;;;;;;;18.67;16.63;;;14.80;99.90;;;;;;5114482;27;20082;-39
2023/07/14 00:58:46;;;;;;;17.73;15.93;;;14.80;99.90;;;;;;5113278;27;20046;-40
2023/07/14 01:01:21;;;;;;;18.02;16.20;;;14.70;99.90;;;;;;5114746;27;20051;-39
2023/07/14 01:03:48;;;;;;;16.88;15.00;;;14.80;99.90;;;;;;5096715;27;20480;-40
2023/07/14 01:06:18;;;;;;;18.73;15.57;;;14.80;99.90;;;;;;5113989;27;20839;-39
2023/07/14 01:08:54;;;;;;;18.17;16.33;;;14.70;99.90;;;;;;5114225;27;20103;-40
2023/07/14 01:11:23;;;;;;;18.25;16.42;;;14.70;99.90;;;;;;5115114;27;20051;-39
2023/07/14 01:13:49;;;;;;;18.83;15.77;;;14.70;99.90;;;;;;5097128;28;20642;-39
2023/07/14 01:16:15;;;;;;;19.75;17.63;;;14.70;99.90;;;;;;5113963;27;20650;-40
2023/07/14 01:18:43;;;;;;;19.23;17.42;;;14.60;99.90;;;;;;5095658;28;20047;-40
2023/07/14 01:21:09;;;;;;;18.02;16.23;;;14.60;99.90;;;;;;5114679;27;20046;-40
2023/07/14 01:23:54;;;;;;;19.50;17.42;;;14.60;99.90;;;;;;5115244;27;20045;-39
2023/07/14 01:26:59;;;;;;;20.65;16.38;;;14.60;99.90;;;;;;5115185;27;20047;-39
2023/07/14 01:29:25;;;;;;;21.33;16.38;;;14.60;99.90;;;;;;5096319;28;20047;-39
2023/07/14 01:31:51;;;;;;;19.95;15.55;;;14.60;99.90;;;;;;5115370;27;20047;-40
2023/07/14 01:34:17;;;;;;;18.92;17.02;;;14.60;99.90;;;;;;5110885;27;20115;-39
2023/07/14 01:36:44;;;;;;;18.80;15.55;;;14.50;99.90;;;;;;5108703;27;20874;-40
2023/07/14 01:39:11;;;;;;;19.30;16.05;;;14.50;99.90;;;;;;5111198;27;20046;-39
2023/07/14 01:41:37;;;;;;;18.23;16.27;;;14.50;99.90;;;;;;5096263;28;20481;-39
2023/07/14 01:44:05;;;;;;;17.98;16.08;;;14.50;99.90;;;;;;5102036;27;20487;-39
2023/07/14 01:46:31;;;;;;;20.58;16.00;;;14.50;99.90;;;;;;5114235;27;20044;-39
2023/07/14 01:48:57;;;;;;;21.63;14.82;;;14.50;99.90;;;;;;5109131;27;20050;-39
2023/07/14 01:51:27;;;;;;;17.98;15.80;;;14.40;99.90;;;;;;5134506;27;20091;-39
2023/07/14 01:54:22;;;;;;;19.42;14.98;;;14.50;99.90;;;;;;5135360;27;20475;-39
2023/07/14 01:56:50;;;;;;;22.02;16.23;;;14.50;99.90;;;;;;5138710;27;20043;-39
2023/07/14 01:59:22;;;;;;;21.08;16.05;;;14.50;99.90;;;;;;5138203;27;20042;-39
2023/07/14 02:01:50;;;;;;;20.52;16.60;;;14.40;99.90;;;;;;5112398;27;20532;-40
2023/07/14 02:04:30;;;;;;;18.90;16.48;;;14.40;99.90;;;;;;5116655;27;20039;-40
2023/07/14 02:06:56;;;;;;;19.58;15.20;;;14.40;99.90;;;;;;5097147;27;20177;-39
2023/07/14 02:09:24;;;;;;;19.80;15.88;;;14.40;99.90;;;;;;5117889;27;20049;-39
2023/07/14 02:12:18;;;;;;;19.98;16.20;;;14.40;99.90;;;;;;5099888;27;20047;-39
2023/07/14 02:14:52;;;;;;;;;;;14.40;99.90;;;;;;5114588;27;20047;-39
2023/07/14 02:17:33;;;;;;;17.30;15.32;;;14.40;99.90;;;;;;5104346;27;20436;-39
2023/07/14 02:20:03;;;;;;;17.08;14.75;;;14.30;99.90;;;;;;5098812;27;20047;-39
2023/07/14 02:22:31;;;;;;;16.42;14.73;;;14.30;99.90;;;;;;5098239;27;20500;-39
2023/07/14 02:24:58;;;;;;;20.33;16.27;;;14.30;99.90;;;;;;5117311;27;20039;-39
2023/07/14 02:27:24;;;;;;;16.05;13.98;;;14.30;99.90;;;;;;5118191;27;20039;-39
2023/07/14 02:29:50;;;;;;;16.42;14.48;;;14.30;99.90;;;;;;5117238;27;20122;-39
2023/07/14 02:32:34;;;;;;;18.80;14.43;;;14.30;99.90;;;;;;5117759;27;20503;-40
2023/07/14 02:35:09;;;;;;;18.85;13.93;;;14.30;99.90;;;;;;5109382;27;20645;-40
2023/07/14 02:38:05;;;;;;;17.77;13.80;;;14.30;99.90;;;;;;5107708;27;20066;-39
2023/07/14 02:40:36;;;;;;;20.63;14.00;;;14.30;99.90;;;;;;5117597;27;20044;-39
2023/07/14 02:43:10;;;;;;;16.63;13.70;;;14.30;99.90;;;;;;5084539;27;20362;-39
2023/07/14 02:45:54;;;;;;;14.55;13.13;;;14.30;99.90;;;;;;5109236;27;20050;-40
2023/07/14 02:48:22;;;;;;;;;;;14.30;99.90;;;;;;5118577;27;20074;-39
2023/07/14 02:50:48;;;;;;;13.90;12.20;;;14.30;99.90;;;;;;5116526;27;20019;-39
2023/07/14 02:53:14;;;;;;;15.80;12.35;;;14.30;99.90;;;;;;5116820;27;20158;-39
2023/07/14 02:55:40;;;;;;;12.88;11.63;;;14.30;99.90;;;;;;5116173;27;20046;-39
2023/07/14 02:58:05;;;;;;;15.00;12.20;;;14.30;99.90;;;;;;5117296;27;20509;-39
2023/07/14 03:00:31;;;;;;;12.70;10.90;;;14.30;99.90;;;;;;5096839;27;20501;-40
2023/07/14 03:02:57;;;;;;;13.65;11.27;;;14.30;99.90;;;;;;5117254;27;20269;-39
2023/07/14 03:05:22;;;;;;;15.07;10.48;;;14.30;99.90;;;;;;5116666;27;20225;-39
2023/07/14 03:07:48;;;;;;;18.02;11.52;;;14.30;99.90;;;;;;5116450;27;20490;-39
2023/07/14 03:10:14;;;;;;;17.17;10.98;;;14.30;99.90;;;;;;5115769;27;20067;-39
2023/07/14 03:12:40;;;;;;;13.73;10.77;;;14.30;99.90;;;;;;5116808;27;20043;-40
2023/07/14 03:15:06;;;;;;;14.38;11.27;;;14.30;99.90;;;;;;5115918;27;20146;-39
2023/07/14 03:17:32;;;;;;;15.10;10.55;;;14.30;99.90;;;;;;5114647;27;20039;-40
2023/07/14 03:19:58;;;;;;;15.25;9.95;;;14.40;99.90;;;;;;5116040;27;20047;-39
2023/07/14 03:22:26;;;;;;;15.48;9.90;;;14.30;99.90;;;;;;5116210;27;20047;-39
2023/07/14 03:24:51;;;;;;;12.75;9.40;;;14.30;99.90;;;;;;5116003;27;20082;-39
2023/07/14 03:27:17;;;;;;;14.18;10.30;;;14.30;99.90;;;;;;5116410;27;20212;-40
2023/07/14 03:29:43;;;;;;;14.77;10.68;;;14.30;99.90;;;;;;5096272;27;20492;-40
2023/07/14 03:32:12;;;;;;;15.13;10.07;;;14.20;99.90;;;;;;5137111;27;20136;-39
2023/07/14 03:34:38;;;;;;;12.98;10.93;;;14.20;99.90;;;;;;5124501;27;20624;-39
2023/07/14 03:37:03;;;;;;;14.00;9.98;;;14.10;99.90;;;;;;5112370;27;20039;-39
2023/07/14 03:39:30;;;;;;;16.60;11.98;;;14.20;99.90;;;;;;5111061;27;20047;-39
2023/07/14 03:41:57;;;;;;;16.10;10.23;;;14.10;99.90;;;;;;5115768;27;20130;-39
2023/07/14 03:44:24;;;;;;;15.52;10.05;;;14.10;99.90;;;;;;5101923;27;20051;-40
2023/07/14 03:46:50;;;;;;;15.43;9.50;;;14.10;99.90;;;;;;5115970;27;20054;-40
2023/07/14 03:49:15;;;;;;;13.57;9.13;;;14.10;99.90;;;;;;5114967;27;20317;-39
2023/07/14 03:51:41;;;;;;;12.00;8.77;;;14.10;99.90;;;;;;5116010;27;20448;-39
2023/07/14 03:54:09;;;;;;;11.25;9.07;;;14.20;99.90;;;;;;5114998;27;20097;-39
2023/07/14 03:56:34;;;;;;;11.95;9.25;;;14.20;99.90;;;;;;5115777;27;20043;-40
2023/07/14 03:59:00;;;;;;;13.52;9.52;;;14.30;99.90;;;;;;5114958;27;20141;-39
2023/07/14 04:01:25;;;;;;;12.63;9.05;;;14.40;99.90;;;;;;5095342;27;20046;-40
2023/07/14 04:03:51;;;;;;;12.70;9.20;;;14.50;99.90;;;;;;5131032;27;20053;-40
2023/07/14 04:06:17;;;;;;;12.68;8.65;;;14.70;99.90;;;;;;5133921;27;20507;-39
2023/07/14 04:08:44;;;;;;;11.55;8.40;;;14.80;99.90;;;;;;5131509;27;20043;-39
2023/07/14 04:11:11;;;;;;;11.35;9.30;;;15.00;99.90;;;;;;5125452;27;20047;-39
2023/07/14 04:13:37;;;;;;;12.23;8.80;;;15.10;99.90;;;;;;5124653;27;20035;-40
2023/07/14 04:16:04;;;;;;;12.73;8.52;;;15.20;99.90;;;;;;5115339;27;20054;-40
2023/07/14 04:18:37;;;;;;;12.32;8.57;;;15.40;99.90;;;;;;5131524;27;20435;-40
2023/07/14 04:21:13;;;;;;;11.47;7.90;;;15.50;99.90;;;;;;5117523;27;20054;-40
2023/07/14 04:23:40;;;;;;;10.38;7.65;;;15.60;99.90;;;;;;5134816;27;20051;-40
2023/07/14 04:26:12;;;;;;;9.65;7.18;;;15.70;99.90;;;;;;5136307;27;20379;-40
2023/07/14 04:28:38;;;;;;;11.02;7.78;;;15.90;99.90;;;;;;5136334;27;20127;-40
2023/07/14 04:31:04;;;;;;;8.25;6.97;;;16.20;99.90;;;;;;5116953;27;20055;-40
2023/07/14 04:33:30;;;;;;;12.23;7.65;;;16.30;99.90;;;;;;5135439;27;20095;-40
2023/07/14 04:35:57;;;;;;;14.57;7.72;;;16.50;99.90;;;;;;5109829;27;20435;-41
2023/07/14 04:38:24;;;;;;;12.82;6.97;;;16.70;99.90;;;;;;5098732;27;20055;-40
2023/07/14 04:40:50;;;;;;;9.15;6.47;;;16.80;99.90;;;;;;5136550;27;20095;-40
2023/07/14 04:43:18;;;;;;;9.02;6.38;;;17.00;99.90;;;;;;5136349;27;20275;-40
2023/07/14 04:45:45;;;;;;;12.95;7.38;;;17.40;99.90;;;;;;5135606;27;20388;-40
2023/07/14 04:48:16;;;;;;;9.57;6.75;;;17.70;99.90;;;;;;5099024;27;20103;-40
2023/07/14 04:50:45;;;;;;;8.95;6.60;;;17.90;99.90;;;;;;5135149;27;20569;-41
2023/07/14 04:53:11;;;;;;;9.23;5.95;;;18.20;99.90;;;;;;5135571;27;20058;-40
2023/07/14 04:55:40;;;;;;;13.05;6.07;;;18.50;99.90;;;;;;5133367;27;20042;-40
2023/07/14 04:58:06;;;;;;;9.98;6.53;;;18.70;99.90;;;;;;5115386;27;20456;-41
2023/07/14 05:00:32;;;;;;;10.02;6.68;;;19.00;99.90;;;;;;5113890;27;20142;-41
2023/07/14 05:02:57;;;;;;;9.30;5.90;;;19.30;99.90;;;;;;5096204;28;20039;-41
2023/07/14 05:05:25;;;;;;;10.80;5.97;;;19.60;99.90;;;;;;5130315;27;20234;-41
2023/07/14 05:07:52;;;;;;;9.50;5.43;;;19.80;99.90;;;;;;5117465;27;20382;-41
2023/07/14 05:10:19;;;;;;;9.13;4.93;;;20.10;99.90;;;;;;5134287;27;20401;-41
2023/07/14 05:12:45;;;;;;;9.10;5.68;;;20.30;99.90;;;;;;5116796;27;20043;-41
2023/07/14 05:15:11;;;;;;;10.38;6.13;;;20.40;99.90;;;;;;5134407;27;20461;-41
2023/07/14 05:17:38;;;;;;;10.02;5.60;;;20.80;99.90;;;;;;5136330;27;20039;-41
2023/07/14 05:20:12;;;;;;;17.10;6.13;;;21.10;99.90;;;;;;5135363;27;20043;-40
2023/07/14 05:22:38;;;;;;;11.60;5.65;;;21.30;99.90;;;;;;5117297;27;20078;-41
2023/07/14 05:25:05;;;;;;;10.23;5.97;;;21.40;99.90;;;;;;5135309;27;20045;-41
2023/07/14 05:27:31;;;;;;;10.68;5.30;;;21.70;99.90;;;;;;5135415;27;20042;-41
2023/07/14 05:29:56;;;;;;;10.30;5.22;;;22.10;99.90;;;;;;5137351;27;20034;-41
2023/07/14 05:32:24;;;;;;;7.20;5.30;;;22.40;99.90;;;;;;5121326;27;20455;-42
2023/07/14 05:34:50;;;;;;;14.15;6.53;;;22.70;99.90;;;;;;5123835;27;20108;-42
2023/07/14 05:37:17;;;;;;;8.57;5.30;;;23.00;99.90;;;;;;5117067;27;20043;-41
2023/07/14 05:39:43;;;;;;;6.95;5.10;;;23.60;99.90;;;;;;5114612;27;20126;-42
2023/07/14 05:42:09;;;;;;;8.95;5.35;;;23.90;99.90;;;;;;5118053;27;20051;-42
2023/07/14 05:44:35;;;;;;;9.32;5.00;;;24.10;99.90;;;;;;5104284;27;20050;-41
2023/07/14 05:47:01;;;;;;;8.50;5.25;;;24.30;99.90;;;;;;5118921;27;20039;-43
2023/07/14 05:49:27;;;;;;;13.57;5.50;;;24.70;99.90;;;;;;5118093;27;20220;-41
2023/07/14 05:51:53;;;;;;;6.82;4.65;;;25.20;99.90;;;;;;5118607;27;20051;-42
2023/07/14 05:54:20;;;;;;;7.18;4.68;;;25.40;99.90;;;;;;5117647;27;20043;-42
2023/07/14 05:56:46;;;;;;;10.05;4.78;;;25.30;99.90;;;;;;5117230;27;20047;-42
2023/07/14 05:59:13;;;;;;;8.93;5.82;;;25.50;99.90;;;;;;5116973;27;20147;-42
2023/07/14 06:01:38;;;;;;;10.07;5.57;;;24.90;99.90;;;;;;5117797;27;20043;-41
2023/07/14 06:04:07;;;;;;;9.10;5.60;;;25.10;99.90;;;;;;5117238;27;20043;-41
2023/07/14 06:06:33;;;;;;;10.15;6.05;;;25.00;99.90;;;;;;5117570;27;20084;-42
2023/07/14 06:09:00;;;;;;;8.63;5.93;;;25.10;99.90;;;;;;5117123;27;20126;-42
2023/07/14 06:11:26;;;;;;;9.75;5.70;;;25.20;99.90;;;;;;5117853;27;20438;-42
2023/07/14 06:13:52;;;;;;;9.43;6.45;;;25.60;99.90;;;;;;5097740;27;20062;-42
2023/07/14 06:16:22;;;;;;;10.88;5.78;;;25.70;99.90;;;;;;5108196;27;20048;-42
2023/07/14 06:18:48;;;;;;;7.90;6.10;;;26.00;99.90;;;;;;5136649;27;20053;-41
2023/07/14 06:21:14;;;;;;;13.27;6.70;;;26.30;99.90;;;;;;5126214;27;20038;-41
2023/07/14 06:23:40;;;;;;;12.10;6.85;;;26.30;99.80;;;;;;5112802;27;20035;-41
2023/07/14 06:26:06;;;;;;;10.77;6.60;;;26.30;99.90;;;;;;5094544;27;20089;-42
2023/07/14 06:28:32;;;;;;;10.60;6.47;;;26.30;99.70;;;;;;5096802;27;20122;-43
2023/07/14 06:31:00;;;;;;;9.13;6.63;;;26.40;99.50;;;;;;5117191;27;20035;-42
2023/07/14 06:33:26;;;;;;;8.48;6.57;;;26.80;99.60;;;;;;5116531;27;20138;-43
2023/07/14 06:35:55;;;;;;;10.77;7.05;;;26.60;98.90;;;;;;5108552;27;20046;-42
2023/07/14 06:38:22;;;;;;;10.70;6.40;;;26.70;99.00;;;;;;5113113;27;20100;-42
2023/07/14 06:40:54;;;;;;;11.70;7.18;;;27.20;98.90;;;;;;5104955;27;20465;-42
2023/07/14 06:43:20;;;;;;;;;;;27.50;97.80;;;;;;5103895;27;20402;-42
2023/07/14 06:45:49;;;;;;;9.23;6.93;;;27.30;97.90;;;;;;5106387;27;20417;-43
2023/07/14 06:48:15;;;;;;;9.35;7.13;;;27.30;98.10;;;;;;5101329;27;20425;-42
2023/07/14 06:50:41;;;;;;;11.38;6.70;;;27.40;97.90;;;;;;5106060;27;20082;-42
2023/07/14 06:53:07;;;;;;;10.65;6.22;;;27.60;97.40;;;;;;5106463;27;20047;-42
2023/07/14 06:55:33;;;;;;;10.50;6.75;;;27.40;97.50;;;;;;5104188;27;20044;-43
2023/07/14 06:57:58;;;;;;;10.60;6.72;;;27.20;97.50;;;;;;5082760;28;20051;-43
2023/07/14 07:00:24;;;;;;;9.13;6.47;;;27.60;97.10;;;;;;5105712;27;20046;-43
2023/07/14 07:02:50;;;;;;;8.15;6.22;;;27.60;96.50;;;;;;5105069;27;20047;-42
2023/07/14 07:05:16;;;;;;;15.95;7.75;;;27.70;96.80;;;;;;5109576;27;20634;-43
2023/07/14 07:07:43;;;;;;;12.00;6.50;;;28.00;97.20;;;;;;5102173;27;20042;-40
2023/07/14 07:10:09;;;;;;;7.82;6.03;;;27.80;96.40;;;;;;5091119;27;20066;-42
2023/07/14 07:12:35;;;;;;;9.60;6.43;;;28.20;96.80;;;;;;5115443;27;20047;-41
2023/07/14 07:15:01;;;;;;;11.13;7.55;;;27.90;96.20;;;;;;5104017;27;20050;-42
2023/07/14 07:17:27;;;;;;;9.48;5.88;;;27.90;96.30;;;;;;5094861;27;20449;-42
2023/07/14 07:19:52;;;;;;;8.52;6.10;;;28.10;95.20;;;;;;5102963;27;20104;-43
2023/07/14 07:22:18;;;;;;;10.00;5.28;;;28.00;95.70;;;;;;5116210;27;20043;-43
2023/07/14 07:24:43;;;;;;;8.82;5.30;;;27.70;95.30;;;;;;5130827;27;20062;-42
2023/07/14 07:27:09;;;;;;;15.65;6.35;;;27.60;96.50;;;;;;5133153;27;20057;-42
2023/07/14 07:29:35;;;;;;;7.18;5.30;;;27.00;96.50;;;;;;5098645;27;20475;-45
2023/07/14 07:32:00;;;;;;;11.98;6.38;;;26.30;97.00;;;;;;5103504;27;20039;-41
2023/07/14 07:34:26;;;;;;;7.63;5.60;;;25.50;97.20;;;;;;5107094;27;20062;-42
2023/07/14 07:36:52;;;;;;;8.05;5.18;;;25.10;98.00;;;;;;5111511;27;20107;-42
2023/07/14 07:39:17;;;;;;;9.68;5.97;;;25.20;98.50;;;;;;5109572;27;20052;-42
2023/07/14 07:41:43;;;;;;;6.13;5.28;;;24.60;98.00;;;;;;5106905;27;21001;-42
2023/07/14 07:44:09;;;;;;;8.20;5.25;;;24.60;98.80;;;;;;5108171;27;20460;-42
2023/07/14 07:46:36;;;;;;;9.05;5.63;;;24.70;99.30;;;;;;5113345;27;20134;-42
2023/07/14 07:49:03;;;;;;;6.93;5.38;;;24.60;98.90;;;;;;5099129;27;20056;-42
2023/07/14 07:51:29;;;;;;;9.60;5.93;;;24.70;99.50;;;;;;5095458;27;20040;-41
2023/07/14 07:53:55;;;;;;;8.88;6.28;;;24.60;99.30;;;;;;5114938;27;20388;-42
2023/07/14 07:56:21;;;;;;;8.27;5.30;;;24.80;99.30;;;;;;5105277;27;20125;-41
2023/07/14 07:58:46;;;;;;;6.18;4.95;;;24.80;99.20;;;;;;5109794;27;20393;-41
2023/07/14 08:01:20;;;;;;;9.20;5.60;;;24.80;99.90;;;;;;5085484;27;20496;-41
2023/07/14 08:03:46;;;;;;;6.63;5.07;;;24.90;99.70;;;;;;5104050;27;20047;-41
2023/07/14 08:06:12;;;;;;;7.88;4.43;;;24.60;98.00;;;;;;5095575;27;20389;-42
2023/07/14 08:08:38;;;;;;;6.22;4.30;;;24.50;98.40;;;;;;5115423;27;20099;-41
2023/07/14 08:11:08;;;;;;;9.77;4.50;;;24.40;98.10;;;;;;5111722;27;20471;-40
2023/07/14 08:13:34;;;;;;;6.60;4.63;;;24.10;97.40;;;;;;5111322;27;20055;-40
2023/07/14 08:15:59;;;;;;;6.60;4.60;;;24.10;98.20;;;;;;5114347;27;20545;-40
2023/07/14 08:18:26;;;;;;;6.93;4.22;;;23.90;98.30;;;;;;5120024;27;20039;-42
2023/07/14 08:20:53;;;;;;;8.55;4.10;;;23.90;98.30;;;;;;5104754;27;20053;-42
2023/07/14 08:23:21;;;;;;;8.32;3.90;;;23.80;99.00;;;;;;5113189;27;20560;-45
2023/07/14 08:26:03;;;;;;;5.28;3.72;;;23.70;97.90;;;;;;5114878;27;20141;-40
2023/07/14 08:28:29;;;;;;;6.03;3.25;;;23.70;97.30;;;;;;5119235;27;20713;-40
2023/07/14 08:30:57;;;;;;;5.97;3.47;;;23.60;97.90;;;;;;5135101;27;20655;-40
2023/07/14 08:33:25;;;;;;;4.88;3.10;;;23.60;98.30;;;;;;5135123;27;20042;-40
2023/07/14 08:35:51;;;;;;;5.82;3.47;;;23.70;98.10;;;;;;5113303;27;20847;-39
2023/07/14 08:38:19;;;;;;;6.60;3.70;;;23.80;97.40;;;;;;5115817;27;20095;-40
2023/07/14 08:40:52;;;;;;;6.85;3.70;;;23.90;97.40;;;;;;5112508;27;20047;-40
2023/07/14 08:43:22;;;;;;;7.97;3.95;;;23.90;98.30;;;;;;5095093;27;20327;-40
2023/07/14 08:46:07;;;;;;;5.72;3.92;;;24.10;99.20;;;;;;5111850;27;20086;-40
2023/07/14 08:48:38;;;;;;;5.95;4.15;;;24.10;98.90;;;;;;5108660;27;20551;-41
2023/07/14 08:51:38;;;;;;;7.28;4.35;;;24.10;98.20;;;;;;5108761;27;20486;-42
2023/07/14 08:54:12;;;;;;;8.25;4.35;;;24.30;98.70;;;;;;5110651;27;20520;-40
2023/07/14 08:56:40;;;;;;;5.50;3.65;;;24.60;98.20;;;;;;5114432;27;20051;-41
2023/07/14 08:59:13;;;;;;;7.43;4.85;;;24.30;97.40;;;;;;5101985;27;20150;-40
2023/07/14 09:01:52;;;;;;;9.20;4.70;;;24.10;98.20;;;;;;5100855;27;20187;-40
2023/07/14 09:04:26;;;;;;;8.77;4.30;;;23.90;99.00;;;;;;5104568;27;20113;-40
2023/07/14 09:06:52;;;;;;;8.38;4.32;;;23.80;97.80;;;;;;5113647;27;20555;-39
2023/07/14 09:09:40;;;;;;;10.00;5.18;;;23.50;98.00;;;;;;5121827;27;20151;-40
2023/07/14 09:12:11;;;;;;;8.10;4.63;;;23.70;99.40;;;;;;5129882;27;20114;-40
2023/07/14 09:14:54;;;;;;;8.15;4.28;;;23.70;99.50;;;;;;5112331;27;20051;-39
2023/07/14 09:17:46;;;;;;;8.60;4.65;;;23.70;98.90;;;;;;5116265;27;20054;-39
2023/07/14 09:20:34;;;;;;;9.07;4.40;;;23.70;99.60;;;;;;5111802;27;20053;-40
2023/07/14 09:23:17;;;;;;;11.38;4.57;;;23.80;99.30;;;;;;5137219;27;20476;-40
2023/07/14 09:25:55;;;;;;;6.93;3.70;;;23.80;97.50;;;;;;5116569;27;20058;-40
2023/07/14 09:28:26;;;;;;;9.68;4.47;;;24.00;97.60;;;;;;5117524;27;20054;-41
2023/07/14 09:30:52;;;;;;;8.88;4.55;;;24.10;98.10;;;;;;5117273;27;20123;-40
2023/07/14 09:33:20;;;;;;;8.32;4.60;;;24.30;98.50;;;;;;5115833;27;20062;-40
2023/07/14 09:35:48;;;;;;;9.90;4.78;;;24.40;97.90;;;;;;5105715;27;20057;-41
2023/07/14 09:38:25;;;;;;;9.07;5.10;;;24.50;98.30;;;;;;5109815;27;20433;-41
2023/07/14 09:40:57;;;;;;;7.60;4.45;;;24.50;97.50;;;;;;5105906;27;20182;-41
2023/07/14 09:43:22;;;;;;;7.63;4.60;;;24.50;97.80;;;;;;5107851;27;20563;-40
2023/07/14 09:45:53;;;;;;;7.80;5.40;;;24.40;98.00;;;;;;5108611;27;20043;-40
2023/07/14 09:48:31;;;;;;;7.50;4.57;;;24.30;97.60;;;;;;5106181;27;20178;-41
2023/07/14 09:51:00;;;;;;;6.50;4.38;;;24.20;97.60;;;;;;5115233;27;20074;-39
2023/07/14 09:53:28;;;;;;;9.68;5.05;;;24.50;98.50;;;;;;5105886;27;20035;-41
2023/07/14 09:56:13;;;;;;;6.63;4.82;;;24.60;97.60;;;;;;5114848;27;20505;-41
2023/07/14 09:58:50;;;;;;;9.30;4.60;;;24.40;96.40;;;;;;5111005;27;20070;-41
2023/07/14 10:01:15;;;;;;;9.23;4.68;;;24.10;98.00;;;;;;5107550;27;20040;-41
2023/07/14 10:03:51;;;;;;;7.95;4.85;;;24.20;97.90;;;;;;5112150;27;20456;-40
2023/07/14 10:06:26;;;;;;;7.28;4.22;;;24.10;97.70;;;;;;5109735;27;20397;-40
2023/07/14 10:09:04;;;;;;;6.05;3.95;;;23.90;98.00;;;;;;5110445;27;20066;-40
2023/07/14 10:11:43;;;;;;;8.85;4.68;;;23.90;97.90;;;;;;5115366;27;20137;-41
2023/07/14 10:14:37;;;;;;;6.90;4.15;;;24.00;98.80;;;;;;5095109;27;20070;-40
2023/07/14 10:17:04;;;;;;;7.30;4.63;;;24.00;96.70;;;;;;5110872;27;20043;-44
2023/07/14 10:19:41;;;;;;;7.32;4.30;;;23.60;97.70;;;;;;5100130;27;20166;-41
2023/07/14 10:22:09;;;;;;;6.25;4.03;;;23.50;97.10;;;;;;5115939;27;20043;-41
2023/07/14 10:24:37;;;;;;;5.95;3.88;;;23.70;98.20;;;;;;5116182;27;20095;-43
2023/07/14 10:27:19;;;;;;;8.48;4.78;;;23.90;98.00;;;;;;5098680;27;20055;-40
2023/07/14 10:29:57;;;;;;;6.55;5.03;;;24.10;97.90;;;;;;5088286;27;20564;-41
2023/07/14 10:32:41;;;;;;;5.47;3.70;;;24.00;97.10;;;;;;5118413;27;20825;-40
2023/07/14 10:35:21;;;;;;;7.95;4.20;;;23.90;97.60;;;;;;5117630;27;20118;-41
2023/07/14 10:38:11;;;;;;;5.90;4.00;;;24.00;97.70;;;;;;5093492;27;20098;-40
2023/07/14 10:40:45;;;;;;;6.65;4.22;;;24.00;97.90;;;;;;5098146;27;20061;-41
2023/07/14 10:43:39;;;;;;;7.93;4.90;;;24.10;97.80;;;;;;5110211;27;20052;-41
2023/07/14 10:46:17;;;;;;;7.78;5.40;;;24.10;98.90;;;;;;5099359;27;20474;-42
2023/07/14 10:48:53;;;;;;;6.97;5.00;;;24.20;99.60;;;;;;5112295;27;20568;-41
2023/07/14 10:51:24;;;;;;;8.70;4.75;;;24.40;99.50;;;;;;5111523;27;20049;-40
2023/07/14 10:54:01;;;;;;;8.95;4.78;;;24.80;99.40;;;;;;5113286;27;20534;-41
2023/07/14 10:56:37;;;;;;;9.23;4.50;;;24.60;97.70;;;;;;5113422;27;20067;-41
2023/07/14 10:59:15;;;;;;;10.30;4.60;;;24.40;97.80;;;;;;5117904;27;20043;-40
2023/07/14 11:01:56;;;;;;;9.38;5.45;;;24.10;99.20;;;;;;5115009;27;20784;-40
2023/07/14 11:04:28;;;;;;;10.73;5.38;;;24.10;98.80;;;;;;5116594;27;20499;-40
2023/07/14 11:06:55;;;;;;;8.20;5.22;;;23.90;98.80;;;;;;5130960;27;20049;-42
2023/07/14 11:09:21;;;;;;;7.68;5.50;;;23.60;98.30;;;;;;5117530;27;20054;-41
2023/07/14 11:11:55;;;;;;;9.10;5.50;;;23.60;99.00;;;;;;5121242;27;20051;-41
2023/07/14 11:14:30;;;;;;;6.93;5.18;;;23.80;99.90;;;;;;5115629;27;20076;-41
2023/07/14 11:17:17;;;;;;;10.63;6.20;;;24.10;99.40;;;;;;5115930;27;20052;-41
2023/07/14 11:19:55;;;;;;;9.82;6.10;;;24.30;98.70;;;;;;5114856;27;20047;-41
2023/07/14 11:22:29;;;;;;;10.05;6.43;;;24.10;98.60;;;;;;5097141;27;20174;-40
2023/07/14 11:25:10;;;;;;;7.30;5.38;;;24.10;98.30;;;;;;5061754;27;20056;-41
2023/07/14 11:27:45;;;;;;;8.18;5.15;;;24.20;99.30;;;;;;5093923;27;20089;-39
2023/07/14 11:30:19;;;;;;;9.50;5.85;;;24.50;98.50;;;;;;5107646;27;20051;-40
2023/07/14 11:32:54;;;;;;;10.52;5.88;;;24.70;98.90;;;;;;5106785;27;20035;-40
2023/07/14 11:35:37;;;;;;;11.00;6.60;;;24.70;98.10;;;;;;5104503;27;20484;-39
2023/07/14 11:38:11;;;;;;;7.68;6.30;;;24.80;99.30;;;;;;5105125;27;20504;-41
2023/07/14 11:40:41;;;;;;;10.65;5.65;;;24.70;98.10;;;;;;5105710;27;20062;-40
2023/07/14 11:43:12;;;;;;;9.70;6.47;;;24.70;97.90;;;;;;5087157;27;20705;-40
2023/07/14 11:45:38;;;;;;;11.00;6.00;;;24.60;98.10;;;;;;5093215;27;20078;-41
2023/07/14 11:48:05;;;;;;;9.25;6.30;;;24.60;98.30;;;;;;5110425;27;20126;-40
2023/07/14 11:50:34;;;;;;;8.80;5.38;;;24.80;99.20;;;;;;5102044;27;20039;-40
2023/07/14 11:52:59;;;;;;;8.25;5.65;;;25.00;98.40;;;;;;5107868;27;20419;-40
2023/07/14 11:55:27;;;;;;;10.52;6.78;;;25.00;98.50;;;;;;5137319;27;20050;-42
2023/07/14 11:58:20;;;;;;;12.82;6.05;;;24.90;98.00;;;;;;5115143;27;20063;-43
2023/07/14 12:00:53;;;;;;;12.02;6.68;;;25.00;99.10;;;;;;5098911;27;20100;-40
2023/07/14 12:03:36;;;;;;;9.50;6.68;;;25.00;99.60;;;;;;5121645;27;20051;-41
2023/07/14 12:06:20;;;;;;;11.27;7.38;;;25.00;99.20;;;;;;5136347;27;20042;-41
2023/07/14 12:09:04;;;;;;;9.07;6.18;;;24.80;99.10;;;;;;5135744;27;20050;-42
2023/07/14 12:11:50;;;;;;;18.85;7.82;;;24.70;98.90;;;;;;5117375;27;20090;-42
2023/07/14 12:14:37;;;;;;;9.70;7.90;;;24.80;99.90;;;;;;5091745;27;20419;-40
2023/07/14 12:17:24;;;;;;;10.73;6.82;;;24.80;99.30;;;;;;5111472;27;20050;-41
2023/07/14 12:19:52;;;;;;;11.93;6.65;;;25.10;99.60;;;;;;5127453;27;20111;-42
2023/07/14 12:22:36;;;;;;;16.83;7.85;;;25.10;98.70;;;;;;5111343;27;20053;-40
2023/07/14 12:25:10;;;;;;;12.02;6.45;;;25.00;99.80;;;;;;5114156;27;20054;-40
2023/07/14 12:27:38;;;;;;;11.43;6.80;;;24.80;99.20;;;;;;5102863;27;20148;-40
2023/07/14 12:30:24;;;;;;;10.18;6.95;;;24.80;99.30;;;;;;5119973;27;20055;-41
2023/07/14 12:32:54;;;;;;;13.95;7.43;;;24.80;99.60;;;;;;5110172;27;20421;-41
2023/07/14 12:35:20;;;;;;;12.73;8.20;;;24.80;98.60;;;;;;5104858;27;20043;-40
2023/07/14 12:37:46;;;;;;;10.77;8.07;;;24.70;99.40;;;;;;5102393;27;20043;-40
2023/07/14 12:40:14;;;;;;;12.77;8.35;;;24.50;99.70;;;;;;5095358;27;20046;-40
2023/07/14 12:42:44;;;;;;;10.10;7.85;;;24.30;99.10;;;;;;5096915;27;20126;-42
2023/07/14 12:45:16;;;;;;;12.02;7.95;;;24.30;99.10;;;;;;5101937;27;20129;-40
2023/07/14 12:47:44;;;;;;;10.38;7.75;;;24.40;99.40;;;;;;5114106;27;20839;-41
2023/07/14 12:50:15;;;;;;;12.40;8.07;;;24.50;99.90;;;;;;5105234;27;20047;-41
2023/07/14 12:52:42;;;;;;;13.88;7.97;;;24.40;99.70;;;;;;5102905;27;20035;-43
2023/07/14 12:55:16;;;;;;;12.15;8.43;;;24.40;99.90;;;;;;5106356;27;20135;-41